Time;durP1;ratioP1;P1;durP2;ratioP2;P2;SDS_P1;SDS_P2;PMS_P1;PMS_P2;Temp;Humidity;BMP_temperature;BMP_pressure;BME280_temperature;BME280_humidity;BME280_pressure;Samples;Min_cycle;Max_cycle;Signal;HPM_P1;HPM_P2
2023/06/30 00:02:19;;;;;;;6.38;2.60;;;14.60;99.90;;;;;;5104387;27;20501;-82
2023/06/30 00:04:47;;;;;;;6.18;2.30;;;14.60;99.90;;;;;;5083930;27;20047;-83
2023/06/30 00:07:13;;;;;;;4.75;1.48;;;14.60;99.90;;;;;;5093793;27;20058;-83
2023/06/30 00:09:39;;;;;;;4.97;2.28;;;14.60;99.90;;;;;;5092939;27;20051;-83
2023/06/30 00:12:05;;;;;;;7.97;2.13;;;14.50;99.90;;;;;;5110165;27;20551;-83
2023/06/30 00:14:30;;;;;;;12.15;2.63;;;14.50;99.90;;;;;;5108273;27;20078;-83
2023/06/30 00:16:56;;;;;;;5.82;1.92;;;14.50;99.90;;;;;;5110715;27;20486;-82
2023/06/30 00:19:24;;;;;;;8.18;3.10;;;14.40;99.90;;;;;;5090031;27;20469;-82
2023/06/30 00:21:52;;;;;;;5.07;2.25;;;14.40;99.90;;;;;;5110142;27;20050;-82
2023/06/30 00:24:18;;;;;;;6.07;1.98;;;14.40;99.90;;;;;;5127417;27;20082;-83
2023/06/30 00:26:43;;;;;;;7.70;2.00;;;14.30;99.90;;;;;;5127169;27;20085;-83
2023/06/30 00:29:09;;;;;;;3.45;1.90;;;15.00;99.90;;;;;;5128159;27;20039;-83
2023/06/30 00:31:35;;;;;;;5.75;2.17;;;14.30;99.90;;;;;;5126332;27;20397;-83
2023/06/30 00:34:01;;;;;;;6.70;1.98;;;14.30;99.90;;;;;;5110445;27;20054;-82
2023/06/30 00:36:28;;;;;;;13.52;3.60;;;14.50;99.90;;;;;;5126245;27;20390;-82
2023/06/30 00:38:54;;;;;;;6.47;2.28;;;14.20;99.90;;;;;;5109573;27;20047;-81
2023/06/30 00:41:21;;;;;;;7.47;2.78;;;14.20;99.90;;;;;;5108667;27;20079;-82
2023/06/30 00:43:47;;;;;;;7.00;2.35;;;14.20;99.90;;;;;;5091419;27;20046;-82
2023/06/30 00:46:15;;;;;;;11.00;2.20;;;14.20;99.90;;;;;;5127761;27;20067;-82
2023/06/30 00:48:41;;;;;;;14.48;2.50;;;14.10;99.90;;;;;;5092418;27;20434;-82
2023/06/30 00:51:08;;;;;;;10.45;2.60;;;14.10;99.90;;;;;;5097798;27;20123;-84
2023/06/30 00:53:34;;;;;;;4.00;1.75;;;14.10;99.90;;;;;;5126717;27;20107;-82
2023/06/30 00:55:59;;;;;;;8.30;1.88;;;12.50;99.90;;;;;;5109762;27;20125;-82
2023/06/30 00:58:25;;;;;;;6.95;1.88;;;14.10;99.90;;;;;;5126743;27;20125;-83
2023/06/30 01:00:55;;;;;;;6.20;1.67;;;14.10;99.90;;;;;;5127036;27;20138;-83
2023/06/30 01:03:39;;;;;;;6.00;2.25;;;14.00;99.90;;;;;;5109270;27;20051;-83
2023/06/30 01:06:17;;;;;;;8.18;2.30;;;14.00;99.90;;;;;;5090687;27;20468;-82
2023/06/30 01:09:11;;;;;;;5.93;1.90;;;14.00;99.90;;;;;;5092675;27;20113;-82
2023/06/30 01:11:37;;;;;;;10.02;1.92;;;14.00;99.90;;;;;;5088820;27;20043;-82
2023/06/30 01:14:06;;;;;;;18.35;2.63;;;13.90;99.90;;;;;;5125828;27;20508;-81
2023/06/30 01:16:33;;;;;;;2.70;1.55;;;13.90;99.90;;;;;;5092067;27;20050;-82
2023/06/30 01:19:06;;;;;;;7.82;2.40;;;13.90;99.90;;;;;;5090149;27;20069;-82
2023/06/30 01:21:32;;;;;;;;;;;13.90;99.90;;;;;;5128540;27;20050;-83
2023/06/30 01:24:08;;;;;;;7.53;2.17;;;13.90;99.90;;;;;;5107145;27;19919;-82
2023/06/30 01:26:34;;;;;;;3.58;1.90;;;13.90;99.90;;;;;;5126382;27;20065;-81
2023/06/30 01:29:20;;;;;;;7.47;1.73;;;13.90;99.90;;;;;;5126626;27;20043;-81
2023/06/30 01:31:46;;;;;;;8.82;2.28;;;13.80;99.90;;;;;;5109956;27;20099;-80
2023/06/30 01:34:12;;;;;;;7.97;2.13;;;13.80;99.90;;;;;;5086543;27;20066;-81
2023/06/30 01:36:38;;;;;;;7.22;2.15;;;13.80;99.90;;;;;;5097124;27;20569;-82
2023/06/30 01:39:03;;;;;;;5.65;1.77;;;13.80;99.90;;;;;;5109327;27;20043;-82
2023/06/30 01:41:29;;;;;;;11.07;2.60;;;13.80;99.90;;;;;;5126690;27;20374;-82
2023/06/30 01:43:55;;;;;;;8.27;2.38;;;14.40;99.90;;;;;;5125782;27;20447;-81
2023/06/30 01:46:21;;;;;;;9.70;2.05;;;13.70;99.90;;;;;;5104697;28;20079;-81
2023/06/30 01:48:47;;;;;;;6.55;2.15;;;13.70;99.90;;;;;;5102982;28;20126;-82
2023/06/30 01:51:14;;;;;;;2.38;1.58;;;13.70;99.90;;;;;;5106757;28;20087;-82
2023/06/30 01:53:40;;;;;;;8.63;2.65;;;13.70;99.90;;;;;;5104547;28;20114;-81
2023/06/30 01:56:06;;;;;;;8.80;2.42;;;13.60;99.90;;;;;;5104834;28;20488;-81
2023/06/30 01:58:31;;;;;;;9.00;2.30;;;13.60;99.90;;;;;;5108714;28;20147;-82
2023/06/30 02:00:58;;;;;;;5.40;1.85;;;13.60;99.90;;;;;;5105081;28;20048;-82
2023/06/30 02:03:23;;;;;;;7.43;2.35;;;13.70;99.90;;;;;;5106593;28;20107;-81
2023/06/30 02:05:49;;;;;;;8.02;2.45;;;13.60;99.90;;;;;;5104276;28;20397;-82
2023/06/30 02:08:15;;;;;;;3.53;1.42;;;13.50;99.90;;;;;;5106576;28;20082;-82
2023/06/30 02:10:41;;;;;;;3.97;2.15;;;13.50;99.90;;;;;;5103009;28;20047;-82
2023/06/30 02:13:07;;;;;;;7.75;2.13;;;13.50;99.90;;;;;;5104693;28;20474;-82
2023/06/30 02:15:33;;;;;;;5.95;1.98;;;13.50;99.90;;;;;;5105259;28;20067;-82
2023/06/30 02:17:59;;;;;;;6.07;1.90;;;13.40;99.90;;;;;;5102977;28;20044;-80
2023/06/30 02:20:24;;;;;;;7.07;2.75;;;13.40;99.90;;;;;;5087141;28;20134;-81
2023/06/30 02:22:50;;;;;;;9.20;3.05;;;13.40;99.90;;;;;;5102890;28;20123;-80
2023/06/30 02:25:16;;;;;;;4.40;1.80;;;11.30;99.90;;;;;;5087742;28;20047;-80
2023/06/30 02:27:45;;;;;;;4.78;2.33;;;13.30;99.90;;;;;;5103491;28;20053;-81
2023/06/30 02:30:11;;;;;;;6.70;2.42;;;13.30;99.90;;;;;;5105960;28;20039;-81
2023/06/30 02:32:37;;;;;;;4.53;1.88;;;13.30;99.90;;;;;;5069781;28;20096;-81
2023/06/30 02:35:05;;;;;;;8.27;2.75;;;13.20;99.90;;;;;;5086013;28;20044;-80
2023/06/30 02:37:31;;;;;;;3.40;1.63;;;13.20;99.90;;;;;;5087477;28;20091;-81
2023/06/30 02:39:57;;;;;;;7.40;2.22;;;13.20;99.90;;;;;;5103732;28;20073;-81
2023/06/30 02:42:22;;;;;;;3.92;1.70;;;13.20;99.90;;;;;;5108802;28;20050;-82
2023/06/30 02:44:48;;;;;;;6.72;1.65;;;13.20;99.90;;;;;;5106537;28;20135;-82
2023/06/30 02:47:14;;;;;;;9.93;2.30;;;13.10;99.90;;;;;;5091741;28;20091;-81
2023/06/30 02:49:39;;;;;;;3.38;2.00;;;13.10;99.90;;;;;;5109166;28;20419;-82
2023/06/30 02:52:06;;;;;;;7.53;2.10;;;13.10;99.90;;;;;;5108719;28;20320;-81
2023/06/30 02:54:33;;;;;;;8.95;2.15;;;13.10;99.90;;;;;;5074741;28;20044;-81
2023/06/30 02:56:58;;;;;;;7.13;2.47;;;13.10;99.90;;;;;;5089368;28;20085;-81
2023/06/30 02:59:24;;;;;;;13.38;2.38;;;13.10;99.90;;;;;;5075539;28;20079;-81
2023/06/30 03:01:56;;;;;;;8.10;1.92;;;13.10;99.90;;;;;;5111092;28;20193;-80
2023/06/30 03:04:22;;;;;;;7.78;2.45;;;13.00;99.90;;;;;;5118598;28;20071;-80
2023/06/30 03:06:47;;;;;;;5.43;2.05;;;13.00;99.90;;;;;;5115634;28;20051;-81
2023/06/30 03:09:13;;;;;;;5.68;1.77;;;13.00;99.90;;;;;;5076829;28;20809;-81
2023/06/30 03:11:39;;;;;;;9.43;2.47;;;13.00;99.90;;;;;;5111656;28;20431;-82
2023/06/30 03:14:04;;;;;;;13.15;2.10;;;13.00;99.90;;;;;;5107077;28;20051;-81
2023/06/30 03:16:31;;;;;;;5.53;1.98;;;13.00;99.90;;;;;;5108255;28;20044;-82
2023/06/30 03:18:58;;;;;;;6.82;2.33;;;13.00;99.90;;;;;;5107090;28;20130;-82
2023/06/30 03:21:24;;;;;;;6.18;1.95;;;13.00;99.90;;;;;;5108303;28;20051;-82
2023/06/30 03:23:50;;;;;;;11.00;2.47;;;13.00;99.90;;;;;;5072986;28;20193;-82
2023/06/30 03:26:15;;;;;;;6.65;2.20;;;12.90;99.90;;;;;;5106242;28;20120;-82
2023/06/30 03:28:41;;;;;;;5.82;1.80;;;12.80;99.90;;;;;;5107327;28;20134;-82
2023/06/30 03:31:07;;;;;;;5.25;1.70;;;13.70;99.90;;;;;;5107360;28;20044;-82
2023/06/30 03:33:32;;;;;;;8.57;2.33;;;12.90;99.90;;;;;;5074056;28;20058;-82
2023/06/30 03:35:58;;;;;;;6.70;2.30;;;12.90;99.90;;;;;;5088578;28;20501;-82
2023/06/30 03:38:29;;;;;;;11.95;2.20;;;12.90;99.90;;;;;;5108633;28;20594;-81
2023/06/30 03:40:55;;;;;;;6.05;2.30;;;12.90;99.90;;;;;;5107718;28;20051;-81
2023/06/30 03:43:23;;;;;;;8.45;1.75;;;13.20;99.90;;;;;;5107676;28;20105;-80
2023/06/30 03:45:49;;;;;;;6.97;1.92;;;12.90;99.90;;;;;;5106935;28;20501;-82
2023/06/30 03:48:15;;;;;;;8.80;2.45;;;13.20;99.90;;;;;;5106756;28;20040;-81
2023/06/30 03:50:44;;;;;;;6.07;1.98;;;12.90;99.90;;;;;;5107736;28;20059;-82
2023/06/30 03:53:10;;;;;;;10.50;2.20;;;13.10;99.90;;;;;;5106046;28;20047;-81
2023/06/30 03:55:35;;;;;;;5.00;2.30;;;13.00;99.90;;;;;;5090234;28;20039;-81
2023/06/30 03:58:02;;;;;;;7.40;1.65;;;13.00;99.90;;;;;;5089449;28;20463;-81
2023/06/30 04:00:31;;;;;;;11.18;2.22;;;13.00;99.90;;;;;;5106930;28;20036;-83
2023/06/30 04:02:57;;;;;;;6.97;1.83;;;13.00;99.90;;;;;;5107729;28;20075;-81
2023/06/30 04:05:23;;;;;;;6.28;2.10;;;13.00;99.90;;;;;;5106560;28;20426;-80
2023/06/30 04:07:48;;;;;;;14.77;2.22;;;13.10;99.90;;;;;;5107064;28;20131;-81
2023/06/30 04:10:14;;;;;;;11.10;2.45;;;13.10;99.90;;;;;;5106348;28;20113;-81
2023/06/30 04:12:41;;;;;;;5.43;2.67;;;13.10;99.90;;;;;;5093284;28;20612;-81
2023/06/30 04:15:07;;;;;;;5.68;1.90;;;13.20;99.90;;;;;;5106193;28;20036;-81
2023/06/30 04:17:33;;;;;;;9.90;2.10;;;13.20;99.90;;;;;;5105979;28;20091;-82
2023/06/30 04:19:59;;;;;;;5.53;1.67;;;13.20;99.90;;;;;;5089152;28;20078;-83
2023/06/30 04:22:25;;;;;;;6.25;2.05;;;13.30;99.90;;;;;;5053886;28;20040;-82
2023/06/30 04:24:50;;;;;;;8.77;2.55;;;13.40;99.90;;;;;;5072714;28;20100;-81
2023/06/30 04:27:16;;;;;;;5.28;2.28;;;13.40;99.90;;;;;;5070264;28;20050;-81
2023/06/30 04:29:42;;;;;;;8.32;3.08;;;13.50;99.90;;;;;;5089884;28;20044;-81
2023/06/30 04:32:07;;;;;;;5.70;2.13;;;13.50;99.90;;;;;;5078150;28;20036;-82
2023/06/30 04:34:34;;;;;;;5.78;1.80;;;13.60;99.90;;;;;;5099569;28;20093;-81
2023/06/30 04:37:00;;;;;;;9.88;2.33;;;13.60;99.90;;;;;;5076833;28;20062;-82
2023/06/30 04:39:26;;;;;;;10.40;2.30;;;13.60;99.90;;;;;;5071210;28;20048;-83
2023/06/30 04:41:52;;;;;;;4.70;1.63;;;13.70;99.90;;;;;;5090070;28;20117;-81
2023/06/30 04:44:18;;;;;;;4.60;1.73;;;13.70;99.90;;;;;;5088405;27;20040;-82
2023/06/30 04:46:44;;;;;;;8.95;2.13;;;13.80;99.90;;;;;;5109487;27;20048;-81
2023/06/30 04:49:09;;;;;;;10.25;1.90;;;13.80;99.90;;;;;;5074174;27;20190;-83
2023/06/30 04:51:35;;;;;;;6.85;2.35;;;13.90;99.90;;;;;;5057861;27;20134;-83
2023/06/30 04:54:01;;;;;;;3.85;1.35;;;14.00;99.90;;;;;;5109059;27;20047;-82
2023/06/30 04:56:27;;;;;;;4.30;1.77;;;14.00;99.90;;;;;;5091343;27;20070;-83
2023/06/30 04:58:53;;;;;;;4.05;1.80;;;14.10;99.90;;;;;;5092458;27;20095;-81
2023/06/30 05:01:18;;;;;;;11.45;1.98;;;14.20;99.90;;;;;;5090478;27;20084;-82
2023/06/30 05:03:44;;;;;;;6.05;1.77;;;14.20;99.90;;;;;;5091842;28;20047;-83
2023/06/30 05:06:10;;;;;;;2.58;1.70;;;14.30;99.90;;;;;;5090587;27;20038;-83
2023/06/30 05:08:35;;;;;;;6.28;4.10;;;14.40;99.90;;;;;;5127027;27;20043;-82
2023/06/30 05:11:01;;;;;;;10.23;1.88;;;14.20;99.90;;;;;;5127486;27;20493;-81
2023/06/30 05:13:27;;;;;;;7.85;2.05;;;14.60;99.90;;;;;;5126783;27;20043;-83
2023/06/30 05:15:53;;;;;;;4.22;1.33;;;14.60;99.90;;;;;;5109343;27;20126;-83
2023/06/30 05:18:18;;;;;;;5.20;1.83;;;14.70;99.90;;;;;;5108590;27;20079;-82
2023/06/30 05:20:44;;;;;;;4.53;1.92;;;14.80;99.90;;;;;;5128554;27;20087;-81
2023/06/30 05:23:10;;;;;;;10.30;2.22;;;14.90;99.90;;;;;;5090654;27;20043;-81
2023/06/30 05:25:35;;;;;;;9.32;1.92;;;15.00;99.90;;;;;;5091055;27;20045;-83
2023/06/30 05:28:01;;;;;;;8.05;3.30;;;15.00;99.90;;;;;;5127381;27;20091;-82
2023/06/30 05:30:27;;;;;;;6.53;1.70;;;15.10;99.90;;;;;;5125635;27;20035;-82
2023/06/30 05:32:52;;;;;;;6.75;1.48;;;15.20;99.90;;;;;;5108496;27;20047;-83
2023/06/30 05:35:18;;;;;;;5.55;2.45;;;15.30;99.90;;;;;;5106646;27;20039;-81
2023/06/30 05:37:43;;;;;;;4.25;1.35;;;15.40;99.90;;;;;;5108772;27;20043;-82
2023/06/30 05:40:10;;;;;;;3.80;1.67;;;15.40;99.90;;;;;;5089638;27;20039;-82
2023/06/30 05:42:35;;;;;;;5.45;1.30;;;15.50;99.90;;;;;;5090814;27;20635;-81
2023/06/30 05:45:01;;;;;;;4.40;1.40;;;14.10;99.90;;;;;;5107774;27;20465;-82
2023/06/30 05:47:26;;;;;;;3.58;1.30;;;15.70;99.90;;;;;;5107026;27;20403;-82
2023/06/30 05:49:52;;;;;;;5.72;1.38;;;15.80;99.90;;;;;;5126828;27;20039;-82
2023/06/30 05:52:21;;;;;;;6.88;1.48;;;15.90;99.90;;;;;;5089431;27;20056;-82
2023/06/30 05:54:47;;;;;;;3.88;1.23;;;16.00;99.90;;;;;;5109433;27;20069;-86
2023/06/30 05:57:13;;;;;;;5.63;1.30;;;16.20;99.90;;;;;;5089425;27;20130;-82
2023/06/30 05:59:38;;;;;;;6.05;1.38;;;16.30;99.90;;;;;;5090319;27;20077;-81
2023/06/30 06:02:05;;;;;;;4.30;1.17;;;16.40;99.90;;;;;;5078358;27;20043;-79
2023/06/30 06:04:30;;;;;;;4.15;1.35;;;16.50;99.90;;;;;;5078821;27;20382;-82
2023/06/30 06:06:56;;;;;;;5.75;1.13;;;16.50;99.90;;;;;;5127920;27;20043;-81
2023/06/30 06:09:22;;;;;;;10.95;2.30;;;16.50;99.90;;;;;;5125684;27;20054;-82
2023/06/30 06:11:47;;;;;;;6.03;1.85;;;16.50;99.90;;;;;;5108566;27;20031;-82
2023/06/30 06:14:13;;;;;;;4.82;1.05;;;16.50;99.90;;;;;;5089075;28;20047;-82
2023/06/30 06:16:39;;;;;;;4.18;1.10;;;16.50;99.90;;;;;;5091043;27;20047;-83
2023/06/30 06:19:04;;;;;;;9.70;2.33;;;16.50;99.90;;;;;;5107216;27;20043;-82
2023/06/30 06:21:30;;;;;;;7.72;1.23;;;16.60;99.90;;;;;;5106822;28;20057;-82
2023/06/30 06:23:56;;;;;;;6.25;1.33;;;16.70;99.90;;;;;;5126938;28;20035;-81
2023/06/30 06:26:22;;;;;;;8.13;1.40;;;16.80;99.90;;;;;;5092646;28;20642;-81
2023/06/30 06:28:48;;;;;;;3.35;1.38;;;16.90;99.90;;;;;;5110174;28;20039;-81
2023/06/30 06:31:14;;;;;;;4.65;1.20;;;18.10;99.90;;;;;;5124807;28;20107;-82
2023/06/30 06:33:40;;;;;;;3.72;2.10;;;17.20;99.90;;;;;;5108135;28;20046;-82
2023/06/30 06:36:05;;;;;;;4.72;1.17;;;17.20;99.90;;;;;;5106271;28;20418;-82
2023/06/30 06:38:31;;;;;;;5.05;1.23;;;17.40;99.90;;;;;;5106109;28;20051;-82
2023/06/30 06:40:57;;;;;;;3.00;1.00;;;17.50;99.90;;;;;;5125684;28;20164;-82
2023/06/30 06:43:26;;;;;;;4.55;1.10;;;17.70;99.90;;;;;;5105705;28;20053;-82
2023/06/30 06:45:52;;;;;;;3.58;0.90;;;17.80;99.90;;;;;;5058439;28;20142;-83
2023/06/30 06:48:23;;;;;;;4.85;0.80;;;17.90;99.90;;;;;;5106064;28;20466;-82
2023/06/30 06:50:51;;;;;;;2.50;0.80;;;18.00;99.90;;;;;;5125783;28;20126;-83
2023/06/30 06:53:22;;;;;;;4.40;0.98;;;18.10;99.90;;;;;;5106727;28;20054;-83
2023/06/30 06:55:49;;;;;;;2.22;0.70;;;18.10;99.90;;;;;;5124436;28;20126;-82
2023/06/30 06:58:15;;;;;;;1.77;0.60;;;18.20;99.90;;;;;;5126042;28;20393;-82
2023/06/30 07:00:42;;;;;;;2.88;0.52;;;18.30;99.90;;;;;;5105290;28;20118;-83
2023/06/30 07:03:08;;;;;;;4.88;0.90;;;18.30;99.90;;;;;;5125833;28;20435;-82
2023/06/30 07:05:34;;;;;;;5.15;1.40;;;18.40;99.90;;;;;;5123924;28;20068;-83
2023/06/30 07:07:59;;;;;;;3.63;0.65;;;18.50;99.90;;;;;;5106446;28;20043;-83
2023/06/30 07:10:25;;;;;;;3.05;1.10;;;18.60;99.90;;;;;;5124891;28;20134;-83
2023/06/30 07:12:53;;;;;;;2.67;1.20;;;18.50;99.90;;;;;;5124416;28;20490;-83
2023/06/30 07:15:18;;;;;;;3.20;0.70;;;18.60;99.90;;;;;;5106882;28;20039;-84
2023/06/30 07:17:44;;;;;;;4.95;0.80;;;18.60;99.90;;;;;;5105763;28;20062;-83
2023/06/30 07:20:10;;;;;;;3.45;0.75;;;18.60;99.90;;;;;;5125548;28;20371;-84
2023/06/30 07:22:36;;;;;;;1.73;0.60;;;18.50;99.90;;;;;;5124034;28;20039;-81
2023/06/30 07:25:03;;;;;;;6.47;0.75;;;18.50;99.90;;;;;;5125479;27;20142;-82
2023/06/30 07:27:30;;;;;;;4.25;0.50;;;18.50;99.90;;;;;;5126452;27;20035;-82
2023/06/30 07:29:56;;;;;;;5.10;0.80;;;18.40;99.90;;;;;;5093045;27;20166;-82
2023/06/30 07:32:24;;;;;;;4.60;0.63;;;18.40;99.90;;;;;;5136915;27;20470;-82
2023/06/30 07:34:50;;;;;;;5.93;0.57;;;19.70;99.90;;;;;;5135291;27;20050;-83
2023/06/30 07:37:16;;;;;;;2.05;0.52;;;18.60;99.90;;;;;;5132334;27;20069;-81
2023/06/30 07:39:41;;;;;;;2.70;0.55;;;18.60;99.90;;;;;;5111038;27;20475;-82
2023/06/30 07:42:07;;;;;;;5.65;0.60;;;18.60;99.90;;;;;;5112008;27;20408;-81
2023/06/30 07:44:33;;;;;;;1.58;0.50;;;18.70;99.90;;;;;;5111137;27;20463;-87
2023/06/30 07:46:59;;;;;;;4.05;0.57;;;18.70;99.90;;;;;;5076410;27;20085;-84
2023/06/30 07:49:25;;;;;;;3.10;0.40;;;18.80;99.90;;;;;;5093587;27;20039;-84
2023/06/30 07:51:51;;;;;;;4.43;0.65;;;19.20;99.90;;;;;;5127632;27;20047;-86
2023/06/30 07:54:17;;;;;;;2.60;0.70;;;19.20;99.90;;;;;;5129694;27;20062;-85
2023/06/30 07:56:46;;;;;;;4.20;0.68;;;19.50;99.90;;;;;;5108466;27;20051;-82
2023/06/30 07:59:11;;;;;;;1.02;0.38;;;19.70;99.90;;;;;;5110093;27;20172;-83
2023/06/30 08:01:37;;;;;;;4.28;1.77;;;19.70;99.90;;;;;;5109855;27;20130;-81
2023/06/30 08:04:03;;;;;;;4.97;1.42;;;19.50;99.90;;;;;;5127646;27;20201;-81
2023/06/30 08:06:28;;;;;;;2.42;0.60;;;19.30;99.90;;;;;;5109866;27;20118;-82
2023/06/30 08:08:54;;;;;;;2.92;0.52;;;19.30;99.90;;;;;;5127459;27;20043;-81
2023/06/30 08:11:20;;;;;;;1.40;0.47;;;19.30;99.90;;;;;;5129850;27;20123;-80
2023/06/30 08:13:45;;;;;;;3.72;0.60;;;19.40;99.90;;;;;;5108320;27;20494;-80
2023/06/30 08:16:11;;;;;;;3.53;0.75;;;19.30;99.90;;;;;;5109937;27;20051;-80
2023/06/30 08:18:37;;;;;;;2.30;0.50;;;19.30;99.90;;;;;;5109397;27;20081;-80
2023/06/30 08:21:03;;;;;;;2.30;0.55;;;19.30;99.90;;;;;;5091941;27;20043;-79
2023/06/30 08:23:28;;;;;;;2.05;0.60;;;19.40;99.90;;;;;;5109313;27;20570;-81
2023/06/30 08:25:55;;;;;;;1.23;0.40;;;19.50;99.90;;;;;;5074022;27;20039;-80
2023/06/30 08:28:23;;;;;;;2.53;0.70;;;19.60;99.90;;;;;;5076103;27;20039;-80
2023/06/30 08:30:50;;;;;;;2.95;0.52;;;19.70;99.90;;;;;;5090601;27;20450;-80
2023/06/30 08:33:16;;;;;;;1.75;0.50;;;19.90;99.90;;;;;;5109357;27;20126;-80
2023/06/30 08:35:42;;;;;;;3.28;0.70;;;20.10;99.90;;;;;;5126919;27;20118;-80
2023/06/30 08:38:07;;;;;;;6.22;0.60;;;20.30;99.90;;;;;;5090894;27;20047;-80
2023/06/30 08:40:33;;;;;;;2.00;0.60;;;20.60;99.90;;;;;;5108134;27;20126;-80
2023/06/30 08:43:02;;;;;;;2.58;0.57;;;20.60;99.90;;;;;;5108081;27;20537;-80
2023/06/30 08:45:29;;;;;;;5.28;0.43;;;20.40;99.90;;;;;;5128063;27;20047;-79
2023/06/30 08:48:02;;;;;;;2.60;0.45;;;20.40;99.90;;;;;;5107950;27;20101;-80
2023/06/30 08:50:28;;;;;;;2.78;0.60;;;20.50;99.90;;;;;;5109750;27;20379;-80
2023/06/30 08:52:55;;;;;;;1.52;0.60;;;20.70;99.90;;;;;;5092024;27;20051;-80
2023/06/30 08:55:20;;;;;;;3.35;0.35;;;20.90;99.90;;;;;;5108260;27;20065;-80
2023/06/30 08:57:47;;;;;;;2.17;0.40;;;20.90;99.90;;;;;;5092013;27;20039;-80
2023/06/30 09:00:14;;;;;;;2.40;0.95;;;20.80;99.90;;;;;;5090753;27;20047;-79
2023/06/30 09:02:40;;;;;;;1.02;0.50;;;20.60;99.90;;;;;;5099297;27;20165;-80
2023/06/30 09:05:07;;;;;;;1.80;0.52;;;20.30;99.90;;;;;;5081867;27;20346;-81
2023/06/30 09:07:52;;;;;;;1.83;0.50;;;20.20;99.90;;;;;;5098406;27;20039;-81
2023/06/30 09:10:19;;;;;;;2.47;0.60;;;20.10;99.90;;;;;;5110006;27;20142;-81
2023/06/30 09:12:47;;;;;;;4.43;0.70;;;20.20;99.90;;;;;;5107696;27;20126;-81
2023/06/30 09:15:17;;;;;;;3.45;0.68;;;20.40;99.90;;;;;;5109849;27;20050;-81
2023/06/30 09:17:43;;;;;;;2.72;0.40;;;20.70;99.90;;;;;;5090933;27;20039;-81
2023/06/30 09:20:11;;;;;;;2.28;0.45;;;21.00;99.90;;;;;;5091921;27;20107;-80
2023/06/30 09:22:42;;;;;;;1.52;0.52;;;21.30;99.90;;;;;;5107987;27;20440;-79
2023/06/30 09:25:27;;;;;;;1.52;0.40;;;21.20;99.90;;;;;;5091044;27;20070;-80
2023/06/30 09:27:54;;;;;;;0.80;0.30;;;21.00;99.90;;;;;;5107694;27;20055;-81
2023/06/30 09:30:40;;;;;;;2.22;0.40;;;20.90;99.90;;;;;;5106448;27;20475;-81
2023/06/30 09:33:07;;;;;;;2.00;0.50;;;21.00;99.90;;;;;;5126341;27;20513;-80
2023/06/30 09:35:41;;;;;;;2.10;0.50;;;21.20;99.90;;;;;;5074845;27;20108;-80
2023/06/30 09:38:14;;;;;;;2.33;0.80;;;21.50;99.90;;;;;;5126004;27;20051;-81
2023/06/30 09:40:48;;;;;;;4.20;0.50;;;21.70;99.90;;;;;;5108515;27;20499;-80
2023/06/30 09:43:20;;;;;;;1.08;0.30;;;21.80;99.90;;;;;;5089904;27;20043;-81
2023/06/30 09:45:57;;;;;;;1.83;0.60;;;21.70;99.40;;;;;;5108369;27;20055;-81
2023/06/30 09:48:34;;;;;;;1.63;0.25;;;21.70;99.30;;;;;;5073639;27;20061;-81
2023/06/30 09:51:00;;;;;;;3.63;0.50;;;21.90;99.10;;;;;;5106097;27;20088;-80
2023/06/30 09:53:29;;;;;;;1.67;0.40;;;22.00;99.40;;;;;;5091145;27;20047;-81
2023/06/30 09:55:57;;;;;;;2.05;0.45;;;22.30;99.20;;;;;;5124206;27;20142;-81
2023/06/30 09:58:23;;;;;;;2.70;0.30;;;22.40;98.70;;;;;;5107833;27;20082;-80
2023/06/30 10:00:51;;;;;;;1.08;0.40;;;22.30;98.00;;;;;;5089847;27;20043;-81
2023/06/30 10:03:18;;;;;;;3.55;1.27;;;22.00;96.60;;;;;;5090732;27;20103;-81
2023/06/30 10:05:46;;;;;;;1.20;0.30;;;21.70;96.70;;;;;;5107886;28;20533;-80
2023/06/30 10:08:13;;;;;;;2.15;0.57;;;21.60;97.00;;;;;;5072906;28;20054;-80
2023/06/30 10:10:43;;;;;;;3.45;0.60;;;21.70;97.20;;;;;;5091115;27;20043;-80
2023/06/30 10:13:11;;;;;;;3.40;0.43;;;21.80;97.00;;;;;;5106193;27;20054;-80
2023/06/30 10:15:37;;;;;;;4.28;0.50;;;22.10;96.40;;;;;;5108472;28;20486;-81
2023/06/30 10:18:04;;;;;;;3.13;0.50;;;22.30;96.10;;;;;;5107678;28;20062;-80
2023/06/30 10:20:30;;;;;;;2.63;0.60;;;22.50;95.10;;;;;;5090103;28;20151;-80
2023/06/30 10:23:00;;;;;;;5.53;1.60;;;22.50;95.00;;;;;;5090830;28;20082;-80
2023/06/30 10:25:30;;;;;;;2.30;0.40;;;22.50;94.90;;;;;;5106175;28;20055;-80
2023/06/30 10:27:57;;;;;;;0.65;0.35;;;22.30;94.90;;;;;;5108947;28;20383;-80
2023/06/30 10:30:24;;;;;;;2.38;0.47;;;22.10;94.90;;;;;;5106374;28;20050;-79
2023/06/30 10:32:53;;;;;;;1.20;0.38;;;21.90;94.70;;;;;;5109444;28;20043;-79
2023/06/30 10:35:20;;;;;;;5.80;0.60;;;21.90;94.60;;;;;;5091812;28;20039;-80
2023/06/30 10:37:46;;;;;;;1.25;0.40;;;21.80;94.30;;;;;;5078301;28;20050;-80
2023/06/30 10:40:25;;;;;;;3.83;0.50;;;22.00;94.30;;;;;;5112934;28;20078;-80
2023/06/30 10:42:52;;;;;;;3.38;0.60;;;22.20;93.90;;;;;;5089796;28;20046;-81
2023/06/30 10:45:19;;;;;;;3.03;0.73;;;22.20;93.70;;;;;;5109183;28;20458;-79
2023/06/30 10:47:50;;;;;;;2.63;0.75;;;22.20;93.40;;;;;;5072213;28;20043;-79
2023/06/30 10:50:16;;;;;;;3.75;0.55;;;22.40;93.40;;;;;;5089884;28;20046;-79
2023/06/30 10:52:54;;;;;;;2.00;0.30;;;22.70;93.30;;;;;;5089620;28;20051;-80
2023/06/30 10:55:26;;;;;;;4.25;0.60;;;23.00;92.00;;;;;;5089106;28;20435;-79
2023/06/30 10:57:54;;;;;;;1.85;0.40;;;22.40;92.10;;;;;;5090462;28;20103;-82
2023/06/30 11:00:22;;;;;;;3.25;0.60;;;23.50;92.30;;;;;;5072130;28;20047;-81
2023/06/30 11:02:53;;;;;;;3.20;0.70;;;23.50;91.80;;;;;;5092019;27;20191;-80
2023/06/30 11:05:26;;;;;;;3.25;0.60;;;23.40;91.30;;;;;;5129005;27;20051;-80
2023/06/30 11:08:06;;;;;;;4.03;0.63;;;23.20;91.20;;;;;;5128063;27;20051;-80
2023/06/30 11:10:32;;;;;;;4.47;0.50;;;23.10;91.30;;;;;;5111845;27;20483;-81
2023/06/30 11:13:21;;;;;;;1.67;0.30;;;23.20;91.40;;;;;;5127908;27;20039;-81
2023/06/30 11:15:48;;;;;;;3.30;0.60;;;24.10;91.30;;;;;;5126258;27;20360;-82
2023/06/30 11:18:18;;;;;;;1.85;0.52;;;23.10;91.00;;;;;;5128819;27;20039;-82
2023/06/30 11:21:05;;;;;;;1.70;0.52;;;22.90;91.10;;;;;;5109010;27;20129;-81
2023/06/30 11:23:38;;;;;;;4.63;1.48;;;22.70;90.30;;;;;;5110934;27;20043;-82
2023/06/30 11:26:15;;;;;;;3.08;0.88;;;22.60;90.20;;;;;;5092269;27;20039;-80
2023/06/30 11:28:42;;;;;;;0.82;0.47;;;20.90;89.70;;;;;;5110302;27;20051;-81
2023/06/30 11:31:10;;;;;;;2.38;0.70;;;22.30;90.60;;;;;;5110112;27;20054;-80
2023/06/30 11:33:43;;;;;;;2.92;0.60;;;22.30;90.60;;;;;;5126796;27;20059;-81
2023/06/30 11:36:16;;;;;;;2.65;0.70;;;22.40;90.40;;;;;;5129271;27;20047;-81
2023/06/30 11:38:49;;;;;;;1.25;0.73;;;22.60;90.30;;;;;;5108134;27;20050;-80
2023/06/30 11:41:22;;;;;;;1.95;0.30;;;22.90;90.20;;;;;;5109380;27;20186;-80
2023/06/30 11:43:55;;;;;;;1.73;0.60;;;23.20;89.70;;;;;;5127805;27;20504;-80
2023/06/30 11:46:22;;;;;;;3.65;0.65;;;23.50;87.60;;;;;;5092080;27;20047;-82
2023/06/30 11:48:49;;;;;;;7.65;1.58;;;23.70;87.80;;;;;;5109635;27;20498;-82
2023/06/30 11:51:16;;;;;;;2.25;0.85;;;23.80;87.70;;;;;;5108405;27;20082;-81
2023/06/30 11:53:48;;;;;;;1.15;0.60;;;23.90;87.30;;;;;;5111180;27;20131;-82
2023/06/30 11:56:18;;;;;;;1.65;0.35;;;24.00;84.40;;;;;;5126767;27;20176;-80
2023/06/30 11:58:51;;;;;;;3.33;0.90;;;24.00;84.10;;;;;;5109242;27;20078;-81
2023/06/30 12:01:17;;;;;;;1.05;0.40;;;24.00;80.50;;;;;;5092613;27;20134;-82
2023/06/30 12:03:42;;;;;;;1.60;0.55;;;23.10;82.80;;;;;;5108843;27;20240;-83
2023/06/30 12:06:08;;;;;;;2.83;0.98;;;24.10;83.30;;;;;;5128809;27;20043;-83
2023/06/30 12:08:37;;;;;;;1.55;0.70;;;24.40;83.20;;;;;;5128303;27;20039;-82
2023/06/30 12:11:07;;;;;;;4.10;0.52;;;24.50;82.00;;;;;;5100880;27;20050;-83
2023/06/30 12:13:33;;;;;;;5.32;0.68;;;24.50;80.40;;;;;;5101573;27;20084;-82
2023/06/30 12:16:02;;;;;;;2.53;0.65;;;24.40;80.90;;;;;;5114309;27;20071;-81
2023/06/30 12:18:43;;;;;;;3.45;0.60;;;24.40;80.50;;;;;;5131577;27;20051;-83
2023/06/30 12:21:11;;;;;;;1.20;0.70;;;24.30;80.10;;;;;;5093301;27;20035;-82
2023/06/30 12:23:46;;;;;;;1.58;0.70;;;24.20;80.10;;;;;;5077500;27;20051;-83
2023/06/30 12:26:12;;;;;;;2.00;0.82;;;24.30;78.70;;;;;;5092112;27;20108;-83
2023/06/30 12:28:38;;;;;;;3.38;0.73;;;26.00;80.50;;;;;;5092025;27;20044;-83
2023/06/30 12:31:04;;;;;;;0.95;0.65;;;24.70;79.00;;;;;;5128660;27;20378;-83
2023/06/30 12:33:30;;;;;;;1.88;0.40;;;24.70;78.00;;;;;;5108525;27;20055;-83
2023/06/30 12:35:56;;;;;;;1.65;0.50;;;24.70;77.40;;;;;;5110958;27;20050;-83
2023/06/30 12:38:22;;;;;;;1.02;0.50;;;24.60;76.10;;;;;;5107839;27;20096;-84
2023/06/30 12:40:51;;;;;;;2.28;0.60;;;24.70;76.00;;;;;;5093057;27;20139;-83
2023/06/30 12:43:17;;;;;;;1.35;0.60;;;24.60;76.00;;;;;;5108414;27;20176;-83
2023/06/30 12:45:43;;;;;;;2.35;0.50;;;24.40;76.30;;;;;;5126481;27;20055;-84
2023/06/30 12:48:09;;;;;;;2.17;0.77;;;24.20;76.10;;;;;;5107850;27;20050;-83